createdAt,value
2019-06-20T00:00:31.863Z,17.50
2019-06-20T00:03:05.170Z,17.40
2019-06-20T00:05:35.710Z,17.40
2019-06-20T00:08:18.508Z,17.30
2019-06-20T00:10:52.462Z,17.30
2019-06-20T00:13:24.447Z,17.30
2019-06-20T00:16:02.238Z,17.20
2019-06-20T00:18:32.920Z,17.30
2019-06-20T00:21:06.233Z,17.30
2019-06-20T00:23:36.472Z,17.30
2019-06-20T00:26:06.887Z,17.20
2019-06-20T00:28:42.433Z,17.10
2019-06-20T00:31:21.022Z,17.10
2019-06-20T00:34:10.743Z,17.10
2019-06-20T00:36:42.130Z,17.10
2019-06-20T00:39:18.516Z,17.10
2019-06-20T00:41:50.045Z,17.10
2019-06-20T00:44:27.103Z,17.00
2019-06-20T00:46:58.155Z,17.00
2019-06-20T00:49:57.959Z,17.00
2019-06-20T00:52:30.966Z,17.00
2019-06-20T00:55:06.448Z,17.00
2019-06-20T00:57:49.162Z,17.00
2019-06-20T01:00:25.871Z,16.90
2019-06-20T01:02:56.729Z,16.90
2019-06-20T01:05:36.563Z,16.80
2019-06-20T01:08:14.810Z,16.70
2019-06-20T01:10:56.050Z,16.60
2019-06-20T01:13:48.112Z,16.60
2019-06-20T01:16:21.504Z,16.50
2019-06-20T01:18:55.619Z,16.50
2019-06-20T01:21:25.923Z,16.60
2019-06-20T01:24:09.049Z,16.50
2019-06-20T01:26:46.189Z,16.50
2019-06-20T01:29:17.898Z,16.40
2019-06-20T01:31:52.345Z,16.30
2019-06-20T01:34:29.214Z,16.30
2019-06-20T01:37:00.960Z,16.30
2019-06-20T01:39:35.819Z,16.40
2019-06-20T01:42:06.412Z,16.50
2019-06-20T01:44:38.457Z,16.50
2019-06-20T01:47:08.697Z,16.40
2019-06-20T01:49:42.879Z,16.30
2019-06-20T01:52:13.386Z,16.40
2019-06-20T01:54:43.678Z,16.30
2019-06-20T01:57:20.383Z,16.40
2019-06-20T01:59:50.996Z,16.40
2019-06-20T02:02:31.743Z,16.40
2019-06-20T02:05:02.133Z,16.40
2019-06-20T02:07:32.806Z,16.40
2019-06-20T02:10:06.652Z,16.40
2019-06-20T02:12:37.282Z,16.40
2019-06-20T02:15:08.214Z,16.40
2019-06-20T02:17:42.402Z,16.40
2019-06-20T02:20:28.515Z,16.30
2019-06-20T02:22:58.859Z,16.30
2019-06-20T02:25:29.525Z,16.30
2019-06-20T02:28:00.103Z,16.20
2019-06-20T02:30:31.193Z,16.20
2019-06-20T02:33:02.036Z,16.20
2019-06-20T02:35:34.598Z,16.20
2019-06-20T02:38:07.119Z,16.00
2019-06-20T02:40:39.774Z,16.00
2019-06-20T02:43:31.036Z,16.00
2019-06-20T02:46:01.491Z,15.80
2019-06-20T02:48:31.711Z,15.70
2019-06-20T02:51:05.704Z,15.80
2019-06-20T02:53:36.170Z,15.70
2019-06-20T02:56:06.912Z,15.70
2019-06-20T02:58:39.024Z,15.70
2019-06-20T03:01:09.288Z,15.80
2019-06-20T03:03:39.583Z,15.70
2019-06-20T03:06:09.947Z,15.70
2019-06-20T03:08:43.855Z,15.70
2019-06-20T03:11:14.171Z,15.70
2019-06-20T03:13:47.191Z,15.70
2019-06-20T03:16:17.463Z,15.60
2019-06-20T03:19:00.807Z,15.70
2019-06-20T03:21:31.157Z,15.60
2019-06-20T03:24:04.189Z,15.60
2019-06-20T03:26:51.629Z,15.70
2019-06-20T03:29:24.289Z,15.70
2019-06-20T03:31:54.549Z,15.80
2019-06-20T03:34:30.555Z,15.80
2019-06-20T03:37:01.991Z,15.80
2019-06-20T03:39:32.711Z,15.80
2019-06-20T03:42:03.652Z,15.70
2019-06-20T03:44:34.382Z,15.70
2019-06-20T03:47:06.515Z,15.70
2019-06-20T03:49:36.838Z,15.60
2019-06-20T03:52:07.181Z,15.60
2019-06-20T03:54:38.999Z,15.60
2019-06-20T03:57:09.339Z,15.60
2019-06-20T03:59:39.525Z,15.60
2019-06-20T04:02:09.827Z,15.60
2019-06-20T04:04:40.776Z,15.60
2019-06-20T04:07:11.346Z,15.70
2019-06-20T04:09:41.533Z,15.70
2019-06-20T04:12:11.839Z,15.70
2019-06-20T04:14:42.597Z,15.70
2019-06-20T04:17:12.889Z,15.70
2019-06-20T04:19:43.837Z,15.70
2019-06-20T04:22:14.127Z,15.70
2019-06-20T04:24:44.743Z,15.70
2019-06-20T04:27:15.063Z,15.70
2019-06-20T04:29:45.299Z,15.60
2019-06-20T04:32:18.448Z,15.60
2019-06-20T04:34:48.680Z,15.70
2019-06-20T04:37:18.946Z,15.70
2019-06-20T04:39:49.234Z,15.70
2019-06-20T04:42:19.605Z,15.80
2019-06-20T04:44:52.525Z,15.90
2019-06-20T04:47:22.886Z,15.90
2019-06-20T04:49:53.195Z,15.90
2019-06-20T04:52:23.502Z,15.90
2019-06-20T04:54:53.864Z,15.90
2019-06-20T04:57:26.223Z,15.90
2019-06-20T05:00:04.016Z,16.00
2019-06-20T05:02:34.438Z,16.10
2019-06-20T05:05:07.098Z,16.10
2019-06-20T05:07:37.358Z,16.10
2019-06-20T05:10:07.963Z,16.10
2019-06-20T05:12:38.296Z,16.10
2019-06-20T05:15:08.748Z,16.10
2019-06-20T05:17:39.357Z,16.20
2019-06-20T05:20:11.807Z,16.20
2019-06-20T05:22:42.166Z,16.10
2019-06-20T05:25:12.508Z,16.20
2019-06-20T05:27:44.110Z,16.20
2019-06-20T05:30:14.834Z,16.20
2019-06-20T05:32:45.109Z,16.20
2019-06-20T05:35:19.218Z,16.30
2019-06-20T05:37:51.256Z,16.20
2019-06-20T05:40:22.226Z,16.10
2019-06-20T05:42:53.220Z,16.00
2019-06-20T05:45:23.478Z,16.10
2019-06-20T05:47:54.090Z,16.10
2019-06-20T05:50:24.318Z,16.20
2019-06-20T05:52:54.539Z,16.10
2019-06-20T05:55:25.162Z,16.10
2019-06-20T05:57:55.860Z,16.20
2019-06-20T06:00:26.980Z,16.30
2019-06-20T06:02:58.263Z,16.20
2019-06-20T06:05:28.643Z,16.20
2019-06-20T06:07:58.955Z,16.20
2019-06-20T06:10:29.259Z,16.20
2019-06-20T06:13:00.600Z,16.30
2019-06-20T06:15:30.811Z,16.30
2019-06-20T06:18:01.055Z,16.30
2019-06-20T06:20:31.283Z,16.40
2019-06-20T06:23:01.625Z,16.40
2019-06-20T06:25:32.284Z,16.40
2019-06-20T06:28:02.561Z,16.50
2019-06-20T06:30:32.852Z,16.50
2019-06-20T06:33:03.133Z,16.50
2019-06-20T06:35:35.023Z,16.40
2019-06-20T06:38:05.288Z,16.30
2019-06-20T06:40:35.583Z,16.40
2019-06-20T06:43:05.820Z,16.30
2019-06-20T06:45:36.463Z,16.30
2019-06-20T06:48:07.312Z,16.30
2019-06-20T06:50:37.587Z,16.40
2019-06-20T06:53:07.907Z,16.40
2019-06-20T06:55:38.141Z,16.50
2019-06-20T06:58:08.740Z,16.60
2019-06-20T07:00:42.638Z,16.70
2019-06-20T07:03:14.219Z,16.80
2019-06-20T07:05:44.534Z,17.00
2019-06-20T07:08:14.915Z,17.30
2019-06-20T07:10:45.460Z,17.40
2019-06-20T07:13:15.803Z,17.40
2019-06-20T07:15:46.034Z,17.30
2019-06-20T07:18:16.657Z,17.30
2019-06-20T07:20:46.965Z,17.20
2019-06-20T07:23:17.475Z,17.30
2019-06-20T07:25:47.759Z,17.50
2019-06-20T07:28:18.125Z,17.60
2019-06-20T07:30:48.357Z,17.60
2019-06-20T07:33:18.622Z,17.70
2019-06-20T07:38:19.991Z,18.70
2019-06-20T07:40:50.289Z,18.20
2019-06-20T07:43:21.449Z,18.10
2019-06-20T07:46:02.011Z,17.80
2019-06-20T07:48:23.790Z,17.70
2019-06-20T07:50:56.159Z,17.80
2019-06-20T07:53:26.565Z,17.90
2019-06-20T07:55:56.804Z,18.00
2019-06-20T07:58:27.069Z,18.10
2019-06-20T08:00:57.718Z,18.40
2019-06-20T08:03:28.051Z,18.60
2019-06-20T08:05:58.357Z,18.70
2019-06-20T08:08:28.691Z,18.80
2019-06-20T08:11:00.446Z,18.70
2019-06-20T08:13:31.080Z,18.60
2019-06-20T08:16:03.603Z,18.70
2019-06-20T08:18:33.219Z,18.60
2019-06-20T08:21:03.511Z,18.70
2019-06-20T08:23:34.127Z,18.90
2019-06-20T08:26:05.157Z,18.90
2019-06-20T08:28:35.812Z,18.90
2019-06-20T08:31:06.800Z,18.90
2019-06-20T08:33:37.238Z,18.90
2019-06-20T08:36:07.520Z,18.80
2019-06-20T08:38:38.038Z,18.80
2019-06-20T08:41:08.828Z,18.80
2019-06-20T08:43:39.155Z,19.00
2019-06-20T08:46:10.471Z,18.90
2019-06-20T08:48:40.954Z,18.70
2019-06-20T08:51:14.477Z,19.00
2019-06-20T08:53:43.182Z,19.20
2019-06-20T08:56:13.516Z,19.40
2019-06-20T08:58:43.830Z,19.70
2019-06-20T09:01:14.746Z,19.70
2019-06-20T09:03:45.020Z,19.80
2019-06-20T09:06:15.299Z,19.80
2019-06-20T09:08:48.590Z,19.60
2019-06-20T09:11:19.626Z,19.30
2019-06-20T09:13:49.967Z,19.20
2019-06-20T09:16:24.792Z,19.40
2019-06-20T09:18:56.701Z,19.80
2019-06-20T09:21:27.032Z,20.40
2019-06-20T09:23:59.923Z,20.70
2019-06-20T09:26:30.315Z,20.70
2019-06-20T09:29:01.033Z,20.70
2019-06-20T09:31:31.274Z,21.20
2019-06-20T09:34:04.912Z,21.70
2019-06-20T09:36:33.872Z,21.90
2019-06-20T09:39:05.030Z,22.00
2019-06-20T09:41:35.929Z,22.00
2019-06-20T09:44:06.262Z,21.80
2019-06-20T09:46:36.550Z,21.50
2019-06-20T09:49:07.240Z,21.30
2019-06-20T09:51:37.526Z,21.30
2019-06-20T09:54:07.886Z,21.30
2019-06-20T09:56:38.207Z,21.20
2019-06-20T09:59:08.830Z,21.00
2019-06-20T10:01:39.534Z,20.90
2019-06-20T10:04:10.959Z,20.90
2019-06-20T10:06:41.378Z,21.00
2019-06-20T10:09:13.015Z,21.20
2019-06-20T10:11:43.367Z,21.60
2019-06-20T10:14:13.652Z,21.50
2019-06-20T10:16:47.222Z,21.20
2019-06-20T10:19:15.824Z,21.00
2019-06-20T10:21:46.759Z,21.00
2019-06-20T10:24:18.251Z,21.00
2019-06-20T10:26:49.604Z,21.40
2019-06-20T10:29:19.993Z,21.80
2019-06-20T10:31:53.181Z,22.20
2019-06-20T10:34:23.991Z,22.70
2019-06-20T10:36:54.251Z,22.60
2019-06-20T10:39:24.563Z,22.50
2019-06-20T10:41:54.819Z,22.30
2019-06-20T10:44:25.212Z,22.10
2019-06-20T10:46:55.519Z,21.80
2019-06-20T10:49:25.848Z,21.80
2019-06-20T10:51:56.287Z,21.90
2019-06-20T10:54:26.572Z,21.80
2019-06-20T10:57:00.565Z,22.00
2019-06-20T10:59:33.240Z,22.20
2019-06-20T11:02:06.489Z,22.50
2019-06-20T11:04:36.379Z,22.40
2019-06-20T11:07:06.573Z,22.10
2019-06-20T11:09:36.875Z,22.40
2019-06-20T11:12:07.580Z,22.60
2019-06-20T11:14:39.124Z,22.90
2019-06-20T11:17:10.118Z,22.80
2019-06-20T11:19:41.583Z,22.50
2019-06-20T11:22:13.850Z,21.80
2019-06-20T11:24:45.111Z,21.50
2019-06-20T11:27:15.749Z,21.30
2019-06-20T11:29:46.560Z,21.00
2019-06-20T11:32:17.424Z,20.40
2019-06-20T11:34:47.755Z,20.10
2019-06-20T11:37:19.083Z,19.80
2019-06-20T11:39:51.263Z,19.70
2019-06-20T11:42:21.721Z,19.90
2019-06-20T11:44:52.321Z,20.40
2019-06-20T11:47:23.008Z,21.20
2019-06-20T11:49:53.287Z,21.40
2019-06-20T11:52:23.856Z,21.10
2019-06-20T11:54:56.041Z,20.90
2019-06-20T11:57:26.443Z,20.70
2019-06-20T11:59:57.134Z,20.50
2019-06-20T12:02:27.445Z,20.40
2019-06-20T12:04:57.714Z,20.30
2019-06-20T12:07:28.003Z,20.40
2019-06-20T12:09:58.741Z,21.00
2019-06-20T12:12:29.099Z,21.70
2019-06-20T12:14:59.401Z,22.50
2019-06-20T12:17:29.686Z,22.90
2019-06-20T12:19:59.948Z,23.20
2019-06-20T12:22:30.674Z,22.90
2019-06-20T12:25:00.995Z,22.40
2019-06-20T12:27:31.618Z,21.90
2019-06-20T12:30:02.315Z,21.60
2019-06-20T12:32:33.065Z,21.60
2019-06-20T12:35:03.358Z,21.70
2019-06-20T12:37:33.684Z,21.60
2019-06-20T12:40:04.175Z,21.60
2019-06-20T12:42:34.603Z,21.60
2019-06-20T12:45:05.494Z,21.80
2019-06-20T12:47:38.247Z,21.90
2019-06-20T12:50:08.875Z,21.80
2019-06-20T12:52:41.249Z,21.70
2019-06-20T12:55:13.024Z,22.10
2019-06-20T12:57:44.416Z,22.80
2019-06-20T13:00:16.154Z,23.20
2019-06-20T13:02:47.475Z,23.20
2019-06-20T13:05:18.718Z,23.00
2019-06-20T13:07:50.291Z,22.90
2019-06-20T13:10:21.010Z,22.80
2019-06-20T13:12:51.638Z,23.00
2019-06-20T13:15:22.111Z,23.40
2019-06-20T13:17:52.643Z,23.40
2019-06-20T13:20:23.811Z,23.30
2019-06-20T13:22:54.138Z,22.80
2019-06-20T13:25:24.759Z,21.80
2019-06-20T13:27:55.105Z,21.00
2019-06-20T13:30:25.799Z,20.20
2019-06-20T13:32:56.168Z,19.70
2019-06-20T13:35:26.790Z,18.90
2019-06-20T13:37:57.012Z,18.40
2019-06-20T13:40:27.614Z,18.20
2019-06-20T13:42:58.237Z,18.20
2019-06-20T13:45:28.839Z,18.40
2019-06-20T13:47:59.142Z,18.70
2019-06-20T13:50:29.471Z,18.90
2019-06-20T13:52:59.733Z,19.20
2019-06-20T13:55:30.098Z,19.90
2019-06-20T13:58:00.426Z,21.00
2019-06-20T14:00:31.268Z,22.10
2019-06-20T14:03:04.261Z,22.50
2019-06-20T14:05:34.556Z,22.80
2019-06-20T14:08:05.241Z,22.30
2019-06-20T14:10:35.807Z,21.80
2019-06-20T14:13:18.637Z,21.00
2019-06-20T14:15:38.165Z,20.40
2019-06-20T14:18:08.504Z,19.90
2019-06-20T14:20:38.793Z,19.80
2019-06-20T14:23:09.491Z,19.90
2019-06-20T14:25:40.073Z,20.10
2019-06-20T14:28:10.316Z,20.40
2019-06-20T14:30:40.615Z,20.90
2019-06-20T14:33:11.309Z,21.10
2019-06-20T14:35:42.339Z,21.30
2019-06-20T14:38:13.555Z,22.00
2019-06-20T14:40:48.207Z,23.20
2019-06-20T14:43:18.737Z,23.90
2019-06-20T14:45:49.106Z,24.30
2019-06-20T14:48:20.880Z,25.00
2019-06-20T14:50:51.486Z,25.90
2019-06-20T14:53:22.125Z,26.90
2019-06-20T14:55:54.860Z,27.70
2019-06-20T14:58:25.497Z,28.60
2019-06-20T15:00:56.185Z,27.40
2019-06-20T15:03:26.506Z,25.90
2019-06-20T15:05:56.854Z,25.00
2019-06-20T15:08:27.094Z,24.10
2019-06-20T15:10:57.438Z,24.30
2019-06-20T15:13:27.730Z,25.70
2019-06-20T15:15:58.077Z,26.40
2019-06-20T15:18:28.389Z,25.90
2019-06-20T15:20:59.569Z,26.00
2019-06-20T15:23:29.893Z,26.60
2019-06-20T15:26:00.210Z,27.00
2019-06-20T15:28:30.434Z,26.40
2019-06-20T15:31:00.644Z,25.80
2019-06-20T15:33:30.920Z,25.60
2019-06-20T15:36:01.216Z,26.00
2019-06-20T15:38:31.935Z,27.30
2019-06-20T15:41:03.853Z,27.40
2019-06-20T15:43:35.012Z,25.90
2019-06-20T15:46:05.654Z,24.40
2019-06-20T15:48:36.291Z,23.50
2019-06-20T15:51:06.809Z,23.00
2019-06-20T15:53:37.095Z,22.40
2019-06-20T15:56:07.433Z,22.60
2019-06-20T15:58:37.761Z,22.90
2019-06-20T16:01:08.104Z,23.10
2019-06-20T16:03:38.348Z,23.00
2019-06-20T16:06:08.715Z,23.20
2019-06-20T16:08:39.136Z,23.90
2019-06-20T16:11:09.543Z,24.30
2019-06-20T16:13:40.118Z,24.40
2019-06-20T16:16:10.440Z,24.10
2019-06-20T16:18:40.700Z,24.00
2019-06-20T16:21:10.952Z,24.00
2019-06-20T16:23:41.209Z,23.90
2019-06-20T16:26:11.436Z,23.60
2019-06-20T16:28:41.636Z,24.20
2019-06-20T16:31:25.835Z,24.00
2019-06-20T16:33:43.693Z,23.60
2019-06-20T16:36:13.920Z,23.50
2019-06-20T16:38:44.999Z,23.60
2019-06-20T16:41:15.296Z,22.80
2019-06-20T16:43:45.540Z,22.40
2019-06-20T16:46:16.178Z,22.30
2019-06-20T16:48:46.758Z,22.60
2019-06-20T16:51:17.099Z,23.40
2019-06-20T16:53:47.384Z,24.00
2019-06-20T16:56:17.883Z,25.40
2019-06-20T16:58:48.034Z,25.60
2019-06-20T17:01:18.413Z,25.30
2019-06-20T17:03:49.831Z,24.20
2019-06-20T17:06:20.969Z,24.50
2019-06-20T17:08:51.244Z,25.30
2019-06-20T17:11:21.917Z,25.20
2019-06-20T17:13:52.192Z,24.00
2019-06-20T17:16:22.612Z,23.00
2019-06-20T17:18:53.195Z,22.60
2019-06-20T17:21:23.419Z,22.80
2019-06-20T17:23:53.942Z,23.80
2019-06-20T17:26:24.209Z,24.80
2019-06-20T17:28:54.408Z,24.10
2019-06-20T17:31:24.763Z,23.10
2019-06-20T17:33:57.817Z,22.50
2019-06-20T17:36:26.950Z,22.00
2019-06-20T17:38:57.504Z,23.20
2019-06-20T17:41:27.859Z,25.30
2019-06-20T17:43:59.115Z,27.20
2019-06-20T17:46:29.745Z,28.50
2019-06-20T17:49:00.036Z,28.80
2019-06-20T17:51:31.368Z,29.30
2019-06-20T17:54:02.021Z,29.50
2019-06-20T17:56:32.692Z,29.60
2019-06-20T17:59:03.337Z,29.20
2019-06-20T18:01:36.114Z,28.00
2019-06-20T18:04:13.782Z,27.20
2019-06-20T18:06:38.138Z,26.70
2019-06-20T18:09:10.375Z,26.00
2019-06-20T18:11:40.594Z,25.20
2019-06-20T18:14:11.344Z,24.00
2019-06-20T18:16:41.640Z,23.20
2019-06-20T18:19:11.987Z,22.30
2019-06-20T18:21:42.352Z,21.60
2019-06-20T18:24:12.625Z,21.20
2019-06-20T18:26:42.932Z,21.00
2019-06-20T18:29:13.147Z,20.80
2019-06-20T18:31:43.484Z,20.50
2019-06-20T18:34:28.928Z,20.40
2019-06-20T18:36:46.008Z,20.20
2019-06-20T18:39:16.191Z,20.10
2019-06-20T18:41:47.548Z,19.80
2019-06-20T18:44:17.885Z,19.60
2019-06-20T18:46:48.233Z,19.40
2019-06-20T18:49:18.503Z,19.30
2019-06-20T18:51:48.729Z,19.10
2019-06-20T18:54:18.981Z,19.00
2019-06-20T18:56:49.734Z,19.00
2019-06-20T18:59:21.039Z,19.00
2019-06-20T19:01:51.419Z,19.00
2019-06-20T19:04:21.685Z,19.10
2019-06-20T19:06:52.496Z,19.10
2019-06-20T19:09:22.689Z,19.00
2019-06-20T19:11:53.367Z,19.00
2019-06-20T19:14:23.993Z,18.80
2019-06-20T19:16:54.218Z,18.70
2019-06-20T19:19:24.398Z,18.60
2019-06-20T19:21:54.813Z,18.50
2019-06-20T19:24:25.099Z,18.40
2019-06-20T19:26:55.534Z,18.30
2019-06-20T19:29:26.069Z,18.20
2019-06-20T19:31:56.390Z,18.10
2019-06-20T19:34:27.893Z,18.10
2019-06-20T19:36:59.098Z,18.00
2019-06-20T19:39:30.008Z,17.90
2019-06-20T19:42:00.957Z,17.80
2019-06-20T19:44:31.252Z,17.70
2019-06-20T19:47:01.679Z,17.60
2019-06-20T19:49:32.886Z,17.60
2019-06-20T19:52:03.208Z,17.50
2019-06-20T19:54:33.812Z,17.40
2019-06-20T19:57:04.164Z,17.30
2019-06-20T19:59:34.345Z,17.20
2019-06-20T20:02:04.632Z,17.10
2019-06-20T20:04:34.838Z,17.10
2019-06-20T20:07:05.518Z,17.00
2019-06-20T20:09:35.728Z,16.80
2019-06-20T20:12:05.987Z,16.80
2019-06-20T20:14:36.313Z,16.80
2019-06-20T20:17:06.620Z,16.70
2019-06-20T20:19:36.914Z,16.70
2019-06-20T20:22:07.274Z,16.70
2019-06-20T20:24:37.465Z,16.60
2019-06-20T20:27:07.710Z,16.50
2019-06-20T20:29:37.976Z,16.40
2019-06-20T20:32:08.246Z,16.30
2019-06-20T20:34:38.726Z,16.40
2019-06-20T20:37:09.055Z,16.30
2019-06-20T20:39:39.261Z,16.20
2019-06-20T20:42:09.549Z,16.20
2019-06-20T20:44:39.804Z,16.10
2019-06-20T20:47:10.032Z,16.10
2019-06-20T20:49:40.227Z,16.00
2019-06-20T20:52:10.593Z,16.00
2019-06-20T20:54:40.963Z,15.90
2019-06-20T20:57:11.711Z,15.90
2019-06-20T20:59:42.382Z,15.80
2019-06-20T21:02:12.639Z,15.70
2019-06-20T21:04:42.902Z,15.60
2019-06-20T21:07:13.226Z,15.50
2019-06-20T21:09:43.781Z,15.40
2019-06-20T21:12:14.062Z,15.40
2019-06-20T21:14:44.837Z,15.30
2019-06-20T21:17:15.053Z,15.30
2019-06-20T21:19:46.507Z,15.20
2019-06-20T21:22:16.834Z,15.30
2019-06-20T21:24:47.782Z,15.20
2019-06-20T21:27:18.043Z,15.10
2019-06-20T21:29:48.227Z,15.20
2019-06-20T21:32:18.442Z,15.10
2019-06-20T21:34:48.631Z,15.10
2019-06-20T21:37:18.870Z,15.10
2019-06-20T21:39:49.157Z,15.00
2019-06-20T21:42:20.880Z,15.00
2019-06-20T21:44:51.098Z,15.00
2019-06-20T21:47:21.382Z,15.00
2019-06-20T21:49:51.903Z,14.90
2019-06-20T21:52:22.218Z,14.80
2019-06-20T21:54:52.429Z,14.80
2019-06-20T21:57:24.610Z,14.80
2019-06-20T21:59:54.862Z,14.70
2019-06-20T22:02:26.161Z,14.70
2019-06-20T22:04:56.488Z,14.70
2019-06-20T22:07:26.749Z,14.80
2019-06-20T22:09:57.000Z,14.70
2019-06-20T22:12:27.366Z,14.70
2019-06-20T22:14:57.575Z,14.70
2019-06-20T22:17:29.794Z,14.60
2019-06-20T22:20:00.016Z,14.60
2019-06-20T22:22:30.151Z,14.50
2019-06-20T22:25:00.419Z,14.40
2019-06-20T22:27:30.938Z,14.40
2019-06-20T22:30:03.656Z,14.40
2019-06-20T22:32:33.198Z,14.30
2019-06-20T22:35:04.094Z,14.30
2019-06-20T22:37:34.389Z,14.20
2019-06-20T22:40:05.431Z,14.30
2019-06-20T22:42:35.629Z,14.30
2019-06-20T22:45:07.195Z,14.30
2019-06-20T22:47:38.933Z,14.30
2019-06-20T22:50:10.797Z,14.20
2019-06-20T22:52:41.021Z,14.10
2019-06-20T22:55:11.871Z,14.10
2019-06-20T22:57:42.284Z,13.90
2019-06-20T23:00:14.854Z,13.90
2019-06-20T23:02:45.429Z,13.90
2019-06-20T23:05:16.494Z,13.90
2019-06-20T23:07:46.718Z,13.90
2019-06-20T23:10:17.391Z,13.90
2019-06-20T23:12:48.238Z,13.90
2019-06-20T23:15:18.424Z,13.80
2019-06-20T23:17:48.643Z,13.80
2019-06-20T23:20:20.480Z,13.70
2019-06-20T23:22:52.259Z,13.60
2019-06-20T23:25:22.616Z,13.70
2019-06-20T23:27:53.034Z,13.70
2019-06-20T23:30:24.971Z,13.70
2019-06-20T23:32:55.505Z,13.70
2019-06-20T23:35:26.062Z,13.70
2019-06-20T23:37:56.346Z,13.70
2019-06-20T23:40:26.503Z,13.60
2019-06-20T23:42:56.740Z,13.60
2019-06-20T23:45:27.005Z,13.60
2019-06-20T23:47:57.225Z,13.60
2019-06-20T23:50:27.502Z,13.50
2019-06-20T23:53:02.743Z,13.50
2019-06-20T23:55:33.465Z,13.50
2019-06-20T23:58:04.216Z,13.50
